sensor_id;sensor_type;location;lat;lon;timestamp;P1;durP1;ratioP1;P2;durP2;ratioP2
81176;SDS011;70786;48.272;14.200;2023-07-20T00:01:49;6.07;;;2.67;;
81176;SDS011;70786;48.272;14.200;2023-07-20T00:04:15;4.60;;;2.55;;
81176;SDS011;70786;48.272;14.200;2023-07-20T00:06:41;5.43;;;2.20;;
81176;SDS011;70786;48.272;14.200;2023-07-20T00:09:07;3.85;;;2.47;;
81176;SDS011;70786;48.272;14.200;2023-07-20T00:11:35;3.92;;;2.53;;
81176;SDS011;70786;48.272;14.200;2023-07-20T00:14:03;4.20;;;2.42;;
81176;SDS011;70786;48.272;14.200;2023-07-20T00:16:32;6.53;;;2.65;;
81176;SDS011;70786;48.272;14.200;2023-07-20T00:18:58;5.03;;;2.63;;
81176;SDS011;70786;48.272;14.200;2023-07-20T00:21:24;5.28;;;2.78;;
81176;SDS011;70786;48.272;14.200;2023-07-20T00:23:50;6.43;;;2.65;;
81176;SDS011;70786;48.272;14.200;2023-07-20T00:26:16;5.13;;;3.20;;
81176;SDS011;70786;48.272;14.200;2023-07-20T00:28:43;5.75;;;2.63;;
81176;SDS011;70786;48.272;14.200;2023-07-20T00:31:09;5.63;;;2.35;;
81176;SDS011;70786;48.272;14.200;2023-07-20T00:33:35;3.92;;;2.55;;
81176;SDS011;70786;48.272;14.200;2023-07-20T00:36:01;4.68;;;2.53;;
81176;SDS011;70786;48.272;14.200;2023-07-20T00:38:27;4.95;;;2.92;;
81176;SDS011;70786;48.272;14.200;2023-07-20T00:40:53;4.63;;;2.83;;
81176;SDS011;70786;48.272;14.200;2023-07-20T00:43:19;6.32;;;2.55;;
81176;SDS011;70786;48.272;14.200;2023-07-20T00:45:45;5.43;;;3.40;;
81176;SDS011;70786;48.272;14.200;2023-07-20T00:48:11;7.15;;;2.80;;
81176;SDS011;70786;48.272;14.200;2023-07-20T00:50:38;5.95;;;2.55;;
81176;SDS011;70786;48.272;14.200;2023-07-20T00:53:05;6.65;;;2.85;;
81176;SDS011;70786;48.272;14.200;2023-07-20T00:55:32;3.83;;;3.05;;
81176;SDS011;70786;48.272;14.200;2023-07-20T00:57:59;3.92;;;2.55;;
81176;SDS011;70786;48.272;14.200;2023-07-20T01:00:25;7.65;;;3.17;;
81176;SDS011;70786;48.272;14.200;2023-07-20T01:02:51;4.78;;;2.63;;
81176;SDS011;70786;48.272;14.200;2023-07-20T01:05:18;4.15;;;2.47;;
81176;SDS011;70786;48.272;14.200;2023-07-20T01:13:06;5.15;;;2.92;;
81176;SDS011;70786;48.272;14.200;2023-07-20T01:15:34;5.45;;;3.15;;
81176;SDS011;70786;48.272;14.200;2023-07-20T01:18:00;7.18;;;2.92;;
81176;SDS011;70786;48.272;14.200;2023-07-20T01:20:27;4.00;;;2.83;;
81176;SDS011;70786;48.272;14.200;2023-07-20T01:28:57;5.70;;;2.58;;
81176;SDS011;70786;48.272;14.200;2023-07-20T01:31:33;4.32;;;2.45;;
81176;SDS011;70786;48.272;14.200;2023-07-20T01:34:02;5.22;;;2.55;;
81176;SDS011;70786;48.272;14.200;2023-07-20T01:36:34;4.60;;;2.67;;
81176;SDS011;70786;48.272;14.200;2023-07-20T01:39:02;5.35;;;2.92;;
81176;SDS011;70786;48.272;14.200;2023-07-20T01:41:30;11.40;;;2.90;;
81176;SDS011;70786;48.272;14.200;2023-07-20T01:43:59;7.40;;;2.78;;
81176;SDS011;70786;48.272;14.200;2023-07-20T01:46:25;5.80;;;3.05;;
81176;SDS011;70786;48.272;14.200;2023-07-20T01:48:52;4.50;;;2.83;;
81176;SDS011;70786;48.272;14.200;2023-07-20T01:51:18;5.50;;;2.75;;
81176;SDS011;70786;48.272;14.200;2023-07-20T01:53:44;5.20;;;2.85;;
81176;SDS011;70786;48.272;14.200;2023-07-20T01:56:10;7.13;;;2.78;;
81176;SDS011;70786;48.272;14.200;2023-07-20T01:58:38;6.70;;;2.83;;
81176;SDS011;70786;48.272;14.200;2023-07-20T02:01:04;4.78;;;3.08;;
81176;SDS011;70786;48.272;14.200;2023-07-20T02:03:36;4.15;;;3.08;;
81176;SDS011;70786;48.272;14.200;2023-07-20T02:06:03;4.65;;;2.80;;
81176;SDS011;70786;48.272;14.200;2023-07-20T02:08:37;7.03;;;2.63;;
81176;SDS011;70786;48.272;14.200;2023-07-20T02:11:03;6.32;;;3.05;;
81176;SDS011;70786;48.272;14.200;2023-07-20T02:13:30;6.05;;;3.10;;
81176;SDS011;70786;48.272;14.200;2023-07-20T02:15:57;4.72;;;3.05;;
81176;SDS011;70786;48.272;14.200;2023-07-20T02:18:25;6.68;;;3.65;;
81176;SDS011;70786;48.272;14.200;2023-07-20T02:20:52;4.28;;;2.60;;
81176;SDS011;70786;48.272;14.200;2023-07-20T02:23:20;5.03;;;2.85;;
81176;SDS011;70786;48.272;14.200;2023-07-20T02:25:48;5.57;;;3.60;;
81176;SDS011;70786;48.272;14.200;2023-07-20T02:28:18;4.57;;;2.88;;
81176;SDS011;70786;48.272;14.200;2023-07-20T02:30:55;5.82;;;2.83;;
81176;SDS011;70786;48.272;14.200;2023-07-20T02:33:24;5.25;;;2.97;;
81176;SDS011;70786;48.272;14.200;2023-07-20T02:35:53;4.72;;;3.03;;
81176;SDS011;70786;48.272;14.200;2023-07-20T02:38:19;5.50;;;2.90;;
81176;SDS011;70786;48.272;14.200;2023-07-20T02:40:51;6.22;;;3.15;;
81176;SDS011;70786;48.272;14.200;2023-07-20T02:43:23;5.97;;;3.17;;
81176;SDS011;70786;48.272;14.200;2023-07-20T02:45:50;4.90;;;3.08;;
81176;SDS011;70786;48.272;14.200;2023-07-20T02:48:19;5.32;;;3.47;;
81176;SDS011;70786;48.272;14.200;2023-07-20T02:50:45;5.53;;;2.95;;
81176;SDS011;70786;48.272;14.200;2023-07-20T02:53:12;3.78;;;2.53;;
81176;SDS011;70786;48.272;14.200;2023-07-20T02:55:40;5.72;;;3.30;;
81176;SDS011;70786;48.272;14.200;2023-07-20T02:58:13;5.07;;;3.28;;
81176;SDS011;70786;48.272;14.200;2023-07-20T03:00:39;4.80;;;2.92;;
81176;SDS011;70786;48.272;14.200;2023-07-20T03:03:08;5.90;;;3.20;;
81176;SDS011;70786;48.272;14.200;2023-07-20T03:05:40;3.83;;;2.58;;
81176;SDS011;70786;48.272;14.200;2023-07-20T03:08:10;5.38;;;3.08;;
81176;SDS011;70786;48.272;14.200;2023-07-20T03:10:46;5.85;;;3.05;;
81176;SDS011;70786;48.272;14.200;2023-07-20T03:13:13;4.80;;;3.22;;
81176;SDS011;70786;48.272;14.200;2023-07-20T03:15:44;4.63;;;2.72;;
81176;SDS011;70786;48.272;14.200;2023-07-20T03:18:15;5.10;;;3.00;;
81176;SDS011;70786;48.272;14.200;2023-07-20T03:20:45;6.43;;;2.80;;
81176;SDS011;70786;48.272;14.200;2023-07-20T03:23:20;5.72;;;3.00;;
81176;SDS011;70786;48.272;14.200;2023-07-20T03:25:46;5.88;;;3.08;;
81176;SDS011;70786;48.272;14.200;2023-07-20T03:28:15;6.70;;;3.22;;
81176;SDS011;70786;48.272;14.200;2023-07-20T03:30:42;7.32;;;3.00;;
81176;SDS011;70786;48.272;14.200;2023-07-20T03:33:08;6.03;;;3.20;;
81176;SDS011;70786;48.272;14.200;2023-07-20T03:35:35;7.78;;;3.33;;
81176;SDS011;70786;48.272;14.200;2023-07-20T03:38:02;6.60;;;3.55;;
81176;SDS011;70786;48.272;14.200;2023-07-20T03:40:30;6.45;;;3.50;;
81176;SDS011;70786;48.272;14.200;2023-07-20T03:43:01;7.47;;;3.50;;
81176;SDS011;70786;48.272;14.200;2023-07-20T03:45:28;6.25;;;3.35;;
81176;SDS011;70786;48.272;14.200;2023-07-20T03:47:55;6.10;;;3.35;;
81176;SDS011;70786;48.272;14.200;2023-07-20T03:50:22;5.55;;;3.03;;
81176;SDS011;70786;48.272;14.200;2023-07-20T03:52:48;6.50;;;3.30;;
81176;SDS011;70786;48.272;14.200;2023-07-20T03:55:18;6.63;;;3.40;;
81176;SDS011;70786;48.272;14.200;2023-07-20T03:57:47;7.45;;;3.13;;
81176;SDS011;70786;48.272;14.200;2023-07-20T04:00:16;5.15;;;3.20;;
81176;SDS011;70786;48.272;14.200;2023-07-20T04:02:43;6.95;;;3.03;;
81176;SDS011;70786;48.272;14.200;2023-07-20T04:05:10;4.90;;;2.90;;
81176;SDS011;70786;48.272;14.200;2023-07-20T04:07:36;6.95;;;2.95;;
81176;SDS011;70786;48.272;14.200;2023-07-20T04:10:03;6.15;;;3.13;;
81176;SDS011;70786;48.272;14.200;2023-07-20T04:12:33;8.30;;;2.97;;
81176;SDS011;70786;48.272;14.200;2023-07-20T04:14:59;5.03;;;2.75;;
81176;SDS011;70786;48.272;14.200;2023-07-20T04:17:27;6.72;;;2.78;;
81176;SDS011;70786;48.272;14.200;2023-07-20T04:19:53;5.00;;;3.17;;
81176;SDS011;70786;48.272;14.200;2023-07-20T04:22:28;4.25;;;2.85;;
81176;SDS011;70786;48.272;14.200;2023-07-20T04:24:55;4.80;;;3.28;;
81176;SDS011;70786;48.272;14.200;2023-07-20T04:27:21;6.22;;;3.03;;
81176;SDS011;70786;48.272;14.200;2023-07-20T04:29:48;5.15;;;3.08;;
81176;SDS011;70786;48.272;14.200;2023-07-20T04:32:15;4.78;;;2.63;;
81176;SDS011;70786;48.272;14.200;2023-07-20T04:34:43;5.53;;;3.03;;
81176;SDS011;70786;48.272;14.200;2023-07-20T04:37:10;4.43;;;2.75;;
81176;SDS011;70786;48.272;14.200;2023-07-20T04:39:36;4.47;;;2.83;;
81176;SDS011;70786;48.272;14.200;2023-07-20T04:42:08;6.20;;;3.05;;
81176;SDS011;70786;48.272;14.200;2023-07-20T04:44:37;7.75;;;3.50;;
81176;SDS011;70786;48.272;14.200;2023-07-20T04:47:06;7.43;;;4.20;;
81176;SDS011;70786;48.272;14.200;2023-07-20T04:49:34;5.25;;;2.92;;
81176;SDS011;70786;48.272;14.200;2023-07-20T04:52:01;4.78;;;2.53;;
81176;SDS011;70786;48.272;14.200;2023-07-20T04:54:28;6.82;;;2.95;;
81176;SDS011;70786;48.272;14.200;2023-07-20T04:56:55;4.75;;;2.95;;
81176;SDS011;70786;48.272;14.200;2023-07-20T04:59:22;5.80;;;3.13;;
81176;SDS011;70786;48.272;14.200;2023-07-20T05:01:51;6.18;;;2.83;;
81176;SDS011;70786;48.272;14.200;2023-07-20T05:04:19;4.95;;;2.67;;
81176;SDS011;70786;48.272;14.200;2023-07-20T05:06:46;5.28;;;3.05;;
81176;SDS011;70786;48.272;14.200;2023-07-20T05:09:13;3.80;;;2.75;;
81176;SDS011;70786;48.272;14.200;2023-07-20T05:11:39;4.28;;;2.67;;
81176;SDS011;70786;48.272;14.200;2023-07-20T05:14:10;4.63;;;3.03;;
81176;SDS011;70786;48.272;14.200;2023-07-20T05:16:39;5.68;;;3.22;;
81176;SDS011;70786;48.272;14.200;2023-07-20T05:19:06;6.85;;;2.80;;
81176;SDS011;70786;48.272;14.200;2023-07-20T05:21:35;4.82;;;2.80;;
81176;SDS011;70786;48.272;14.200;2023-07-20T05:24:07;4.88;;;3.17;;
81176;SDS011;70786;48.272;14.200;2023-07-20T05:26:36;5.78;;;2.95;;
81176;SDS011;70786;48.272;14.200;2023-07-20T05:29:10;3.42;;;2.05;;
81176;SDS011;70786;48.272;14.200;2023-07-20T05:31:46;3.85;;;2.53;;
81176;SDS011;70786;48.272;14.200;2023-07-20T05:34:17;4.63;;;2.53;;
81176;SDS011;70786;48.272;14.200;2023-07-20T05:39:39;3.40;;;2.33;;
81176;SDS011;70786;48.272;14.200;2023-07-20T05:42:05;4.95;;;2.70;;
81176;SDS011;70786;48.272;14.200;2023-07-20T05:44:32;6.38;;;2.30;;
81176;SDS011;70786;48.272;14.200;2023-07-20T05:46:58;5.65;;;2.72;;
81176;SDS011;70786;48.272;14.200;2023-07-20T05:49:24;6.60;;;2.88;;
81176;SDS011;70786;48.272;14.200;2023-07-20T05:51:51;5.20;;;3.10;;
81176;SDS011;70786;48.272;14.200;2023-07-20T05:54:17;4.20;;;2.72;;
81176;SDS011;70786;48.272;14.200;2023-07-20T05:56:45;4.28;;;2.78;;
81176;SDS011;70786;48.272;14.200;2023-07-20T05:59:15;4.82;;;2.92;;
81176;SDS011;70786;48.272;14.200;2023-07-20T06:01:43;5.28;;;2.45;;
81176;SDS011;70786;48.272;14.200;2023-07-20T06:04:12;4.45;;;2.55;;
81176;SDS011;70786;48.272;14.200;2023-07-20T06:06:38;4.53;;;2.92;;
81176;SDS011;70786;48.272;14.200;2023-07-20T06:09:05;6.25;;;3.20;;
81176;SDS011;70786;48.272;14.200;2023-07-20T06:11:39;4.15;;;2.15;;
81176;SDS011;70786;48.272;14.200;2023-07-20T06:14:06;5.45;;;3.00;;
81176;SDS011;70786;48.272;14.200;2023-07-20T06:16:35;7.68;;;3.45;;
81176;SDS011;70786;48.272;14.200;2023-07-20T06:19:02;5.05;;;2.80;;
81176;SDS011;70786;48.272;14.200;2023-07-20T06:21:28;4.78;;;3.33;;
81176;SDS011;70786;48.272;14.200;2023-07-20T06:23:55;7.80;;;3.33;;
81176;SDS011;70786;48.272;14.200;2023-07-20T06:26:21;6.25;;;3.28;;
81176;SDS011;70786;48.272;14.200;2023-07-20T06:28:50;7.63;;;4.45;;
81176;SDS011;70786;48.272;14.200;2023-07-20T06:31:17;5.90;;;3.70;;
81176;SDS011;70786;48.272;14.200;2023-07-20T06:33:44;6.90;;;3.78;;
81176;SDS011;70786;48.272;14.200;2023-07-20T06:36:10;6.38;;;3.58;;
81176;SDS011;70786;48.272;14.200;2023-07-20T06:38:37;7.32;;;3.63;;
81176;SDS011;70786;48.272;14.200;2023-07-20T06:41:06;7.47;;;3.90;;
81176;SDS011;70786;48.272;14.200;2023-07-20T06:43:32;5.03;;;3.70;;
81176;SDS011;70786;48.272;14.200;2023-07-20T06:45:58;7.13;;;3.72;;
81176;SDS011;70786;48.272;14.200;2023-07-20T06:48:25;6.68;;;3.65;;
81176;SDS011;70786;48.272;14.200;2023-07-20T06:50:51;6.95;;;3.55;;
81176;SDS011;70786;48.272;14.200;2023-07-20T06:53:19;8.70;;;4.28;;
81176;SDS011;70786;48.272;14.200;2023-07-20T06:55:46;5.40;;;2.97;;
81176;SDS011;70786;48.272;14.200;2023-07-20T06:58:12;5.60;;;3.05;;
81176;SDS011;70786;48.272;14.200;2023-07-20T07:00:38;7.25;;;3.38;;
81176;SDS011;70786;48.272;14.200;2023-07-20T07:03:04;8.68;;;3.60;;
81176;SDS011;70786;48.272;14.200;2023-07-20T07:05:30;3.80;;;2.88;;
81176;SDS011;70786;48.272;14.200;2023-07-20T07:07:56;4.70;;;2.85;;
81176;SDS011;70786;48.272;14.200;2023-07-20T07:10:22;5.40;;;3.28;;
81176;SDS011;70786;48.272;14.200;2023-07-20T07:12:48;5.05;;;2.90;;
81176;SDS011;70786;48.272;14.200;2023-07-20T07:15:14;4.85;;;3.17;;
81176;SDS011;70786;48.272;14.200;2023-07-20T07:17:40;6.43;;;2.88;;
81176;SDS011;70786;48.272;14.200;2023-07-20T07:20:07;4.38;;;2.60;;
81176;SDS011;70786;48.272;14.200;2023-07-20T07:22:34;4.43;;;2.35;;
81176;SDS011;70786;48.272;14.200;2023-07-20T07:25:00;4.57;;;2.47;;
81176;SDS011;70786;48.272;14.200;2023-07-20T07:27:26;4.20;;;2.30;;
81176;SDS011;70786;48.272;14.200;2023-07-20T07:29:52;4.72;;;2.35;;
81176;SDS011;70786;48.272;14.200;2023-07-20T07:32:18;8.43;;;2.85;;
81176;SDS011;70786;48.272;14.200;2023-07-20T07:34:44;4.45;;;2.22;;
81176;SDS011;70786;48.272;14.200;2023-07-20T07:37:12;6.45;;;2.38;;
81176;SDS011;70786;48.272;14.200;2023-07-20T07:39:38;3.75;;;2.35;;
81176;SDS011;70786;48.272;14.200;2023-07-20T07:42:04;4.03;;;2.10;;
81176;SDS011;70786;48.272;14.200;2023-07-20T07:44:31;4.47;;;2.25;;
81176;SDS011;70786;48.272;14.200;2023-07-20T07:46:57;5.38;;;2.17;;
81176;SDS011;70786;48.272;14.200;2023-07-20T07:49:23;4.97;;;2.10;;
81176;SDS011;70786;48.272;14.200;2023-07-20T07:51:49;4.70;;;2.20;;
81176;SDS011;70786;48.272;14.200;2023-07-20T07:54:15;4.07;;;2.10;;
81176;SDS011;70786;48.272;14.200;2023-07-20T07:56:41;2.67;;;1.92;;
81176;SDS011;70786;48.272;14.200;2023-07-20T07:59:07;3.75;;;2.03;;
81176;SDS011;70786;48.272;14.200;2023-07-20T08:01:33;5.03;;;2.17;;
81176;SDS011;70786;48.272;14.200;2023-07-20T08:04:00;8.75;;;2.20;;
81176;SDS011;70786;48.272;14.200;2023-07-20T08:06:26;4.03;;;2.08;;
81176;SDS011;70786;48.272;14.200;2023-07-20T08:08:52;3.28;;;2.08;;
81176;SDS011;70786;48.272;14.200;2023-07-20T08:11:18;4.25;;;1.88;;
81176;SDS011;70786;48.272;14.200;2023-07-20T08:13:44;3.03;;;2.35;;
81176;SDS011;70786;48.272;14.200;2023-07-20T08:16:10;3.03;;;1.83;;
81176;SDS011;70786;48.272;14.200;2023-07-20T08:18:36;2.50;;;1.60;;
81176;SDS011;70786;48.272;14.200;2023-07-20T08:21:02;3.67;;;2.05;;
81176;SDS011;70786;48.272;14.200;2023-07-20T08:23:28;3.13;;;1.80;;
81176;SDS011;70786;48.272;14.200;2023-07-20T08:25:54;2.05;;;1.50;;
81176;SDS011;70786;48.272;14.200;2023-07-20T08:28:20;2.72;;;1.90;;
81176;SDS011;70786;48.272;14.200;2023-07-20T08:30:47;2.65;;;1.52;;
81176;SDS011;70786;48.272;14.200;2023-07-20T08:33:14;5.10;;;2.03;;
81176;SDS011;70786;48.272;14.200;2023-07-20T08:35:41;3.53;;;1.67;;
81176;SDS011;70786;48.272;14.200;2023-07-20T08:38:08;3.40;;;1.50;;
81176;SDS011;70786;48.272;14.200;2023-07-20T08:40:39;3.08;;;1.80;;
81176;SDS011;70786;48.272;14.200;2023-07-20T08:43:06;4.15;;;1.90;;
81176;SDS011;70786;48.272;14.200;2023-07-20T08:45:35;3.10;;;1.50;;
81176;SDS011;70786;48.272;14.200;2023-07-20T08:48:04;3.85;;;1.60;;
81176;SDS011;70786;48.272;14.200;2023-07-20T08:50:31;2.35;;;1.50;;
81176;SDS011;70786;48.272;14.200;2023-07-20T08:52:59;2.88;;;1.80;;
81176;SDS011;70786;48.272;14.200;2023-07-20T08:55:28;3.55;;;1.50;;
81176;SDS011;70786;48.272;14.200;2023-07-20T08:57:55;2.85;;;1.60;;
81176;SDS011;70786;48.272;14.200;2023-07-20T09:00:23;3.10;;;1.75;;
81176;SDS011;70786;48.272;14.200;2023-07-20T09:02:50;4.05;;;2.20;;
81176;SDS011;70786;48.272;14.200;2023-07-20T09:05:18;4.00;;;1.50;;
81176;SDS011;70786;48.272;14.200;2023-07-20T09:07:45;2.20;;;1.40;;
81176;SDS011;70786;48.272;14.200;2023-07-20T09:10:11;3.25;;;1.48;;
81176;SDS011;70786;48.272;14.200;2023-07-20T09:12:38;1.98;;;1.27;;
81176;SDS011;70786;48.272;14.200;2023-07-20T09:15:06;3.45;;;1.48;;
81176;SDS011;70786;48.272;14.200;2023-07-20T09:17:32;3.55;;;1.50;;
81176;SDS011;70786;48.272;14.200;2023-07-20T09:19:59;4.03;;;1.75;;
81176;SDS011;70786;48.272;14.200;2023-07-20T09:22:30;3.28;;;1.55;;
81176;SDS011;70786;48.272;14.200;2023-07-20T09:24:57;2.90;;;1.80;;
81176;SDS011;70786;48.272;14.200;2023-07-20T09:27:45;2.88;;;1.48;;
81176;SDS011;70786;48.272;14.200;2023-07-20T09:30:14;3.67;;;1.63;;
81176;SDS011;70786;48.272;14.200;2023-07-20T09:32:41;3.55;;;1.80;;
81176;SDS011;70786;48.272;14.200;2023-07-20T09:35:16;2.20;;;1.65;;
81176;SDS011;70786;48.272;14.200;2023-07-20T09:37:48;2.95;;;1.33;;
81176;SDS011;70786;48.272;14.200;2023-07-20T09:40:18;1.77;;;1.25;;
81176;SDS011;70786;48.272;14.200;2023-07-20T09:42:44;1.88;;;1.10;;
81176;SDS011;70786;48.272;14.200;2023-07-20T09:45:11;3.00;;;1.55;;
81176;SDS011;70786;48.272;14.200;2023-07-20T09:47:37;3.13;;;1.75;;
81176;SDS011;70786;48.272;14.200;2023-07-20T09:50:04;2.45;;;1.50;;
81176;SDS011;70786;48.272;14.200;2023-07-20T09:52:42;2.10;;;1.33;;
81176;SDS011;70786;48.272;14.200;2023-07-20T09:55:10;3.38;;;1.08;;
81176;SDS011;70786;48.272;14.200;2023-07-20T09:57:39;3.22;;;1.13;;
81176;SDS011;70786;48.272;14.200;2023-07-20T10:00:06;2.28;;;1.17;;
81176;SDS011;70786;48.272;14.200;2023-07-20T10:02:39;2.00;;;1.50;;
81176;SDS011;70786;48.272;14.200;2023-07-20T10:05:08;1.70;;;1.10;;
81176;SDS011;70786;48.272;14.200;2023-07-20T10:07:36;3.92;;;1.45;;
81176;SDS011;70786;48.272;14.200;2023-07-20T10:10:09;3.28;;;1.50;;
81176;SDS011;70786;48.272;14.200;2023-07-20T10:12:36;3.67;;;1.40;;
81176;SDS011;70786;48.272;14.200;2023-07-20T10:18:11;1.15;;;1.02;;
81176;SDS011;70786;48.272;14.200;2023-07-20T10:20:40;3.40;;;1.48;;
81176;SDS011;70786;48.272;14.200;2023-07-20T10:23:07;3.83;;;1.60;;
81176;SDS011;70786;48.272;14.200;2023-07-20T10:25:33;3.15;;;1.60;;
81176;SDS011;70786;48.272;14.200;2023-07-20T10:28:06;2.13;;;1.35;;
81176;SDS011;70786;48.272;14.200;2023-07-20T10:30:35;3.30;;;1.30;;
81176;SDS011;70786;48.272;14.200;2023-07-20T10:33:05;2.17;;;1.33;;
81176;SDS011;70786;48.272;14.200;2023-07-20T10:35:50;5.05;;;1.40;;
81176;SDS011;70786;48.272;14.200;2023-07-20T10:38:17;2.78;;;1.13;;
81176;SDS011;70786;48.272;14.200;2023-07-20T10:40:43;3.00;;;1.17;;
81176;SDS011;70786;48.272;14.200;2023-07-20T10:43:20;3.20;;;2.00;;
81176;SDS011;70786;48.272;14.200;2023-07-20T10:45:50;2.17;;;1.30;;
81176;SDS011;70786;48.272;14.200;2023-07-20T10:48:21;3.92;;;1.35;;
81176;SDS011;70786;48.272;14.200;2023-07-20T10:53:36;2.28;;;1.30;;
81176;SDS011;70786;48.272;14.200;2023-07-20T10:56:09;2.97;;;1.20;;
81176;SDS011;70786;48.272;14.200;2023-07-20T10:58:39;1.65;;;1.10;;
81176;SDS011;70786;48.272;14.200;2023-07-20T11:01:06;4.57;;;1.55;;
81176;SDS011;70786;48.272;14.200;2023-07-20T11:03:37;1.98;;;1.38;;
81176;SDS011;70786;48.272;14.200;2023-07-20T11:09:02;4.47;;;1.30;;
81176;SDS011;70786;48.272;14.200;2023-07-20T11:11:29;2.15;;;1.20;;
81176;SDS011;70786;48.272;14.200;2023-07-20T11:14:00;3.25;;;1.70;;
81176;SDS011;70786;48.272;14.200;2023-07-20T11:16:34;3.28;;;1.10;;
81176;SDS011;70786;48.272;14.200;2023-07-20T11:19:02;2.67;;;1.30;;
81176;SDS011;70786;48.272;14.200;2023-07-20T11:21:35;1.85;;;1.00;;
81176;SDS011;70786;48.272;14.200;2023-07-20T11:24:04;2.25;;;1.00;;
81176;SDS011;70786;48.272;14.200;2023-07-20T11:26:39;1.98;;;1.10;;
81176;SDS011;70786;48.272;14.200;2023-07-20T11:29:05;3.50;;;1.40;;
81176;SDS011;70786;48.272;14.200;2023-07-20T11:31:34;4.13;;;1.25;;
81176;SDS011;70786;48.272;14.200;2023-07-20T11:34:01;3.47;;;1.23;;
81176;SDS011;70786;48.272;14.200;2023-07-20T11:36:27;1.35;;;1.00;;
81176;SDS011;70786;48.272;14.200;2023-07-20T11:38:53;2.92;;;1.20;;
81176;SDS011;70786;48.272;14.200;2023-07-20T11:41:19;1.20;;;1.10;;
81176;SDS011;70786;48.272;14.200;2023-07-20T11:43:45;2.65;;;1.30;;
81176;SDS011;70786;48.272;14.200;2023-07-20T11:46:11;3.05;;;1.10;;
81176;SDS011;70786;48.272;14.200;2023-07-20T11:48:37;2.00;;;1.00;;
81176;SDS011;70786;48.272;14.200;2023-07-20T11:51:05;3.92;;;1.10;;
81176;SDS011;70786;48.272;14.200;2023-07-20T11:53:31;1.40;;;0.85;;
81176;SDS011;70786;48.272;14.200;2023-07-20T11:55:58;2.35;;;1.30;;
81176;SDS011;70786;48.272;14.200;2023-07-20T11:58:27;1.35;;;0.90;;
81176;SDS011;70786;48.272;14.200;2023-07-20T12:00:53;2.25;;;0.90;;
81176;SDS011;70786;48.272;14.200;2023-07-20T12:03:21;2.88;;;0.90;;
81176;SDS011;70786;48.272;14.200;2023-07-20T12:05:47;2.03;;;0.98;;
81176;SDS011;70786;48.272;14.200;2023-07-20T12:08:13;2.45;;;1.00;;
81176;SDS011;70786;48.272;14.200;2023-07-20T12:10:39;3.90;;;1.00;;
81176;SDS011;70786;48.272;14.200;2023-07-20T12:13:09;1.42;;;0.82;;
81176;SDS011;70786;48.272;14.200;2023-07-20T12:15:37;3.85;;;1.10;;
81176;SDS011;70786;48.272;14.200;2023-07-20T12:18:03;2.20;;;1.17;;
81176;SDS011;70786;48.272;14.200;2023-07-20T12:20:30;1.52;;;1.02;;
81176;SDS011;70786;48.272;14.200;2023-07-20T12:23:01;2.55;;;1.00;;
81176;SDS011;70786;48.272;14.200;2023-07-20T12:25:37;2.80;;;1.13;;
81176;SDS011;70786;48.272;14.200;2023-07-20T12:28:15;2.83;;;1.52;;
81176;SDS011;70786;48.272;14.200;2023-07-20T12:30:45;8.20;;;4.03;;
81176;SDS011;70786;48.272;14.200;2023-07-20T12:33:12;3.47;;;1.75;;
81176;SDS011;70786;48.272;14.200;2023-07-20T12:35:42;3.45;;;1.30;;
81176;SDS011;70786;48.272;14.200;2023-07-20T12:38:09;6.03;;;2.72;;
81176;SDS011;70786;48.272;14.200;2023-07-20T12:40:35;2.25;;;1.23;;
81176;SDS011;70786;48.272;14.200;2023-07-20T12:43:01;2.72;;;1.40;;
81176;SDS011;70786;48.272;14.200;2023-07-20T12:45:27;2.00;;;1.23;;
81176;SDS011;70786;48.272;14.200;2023-07-20T12:47:53;3.47;;;1.02;;
81176;SDS011;70786;48.272;14.200;2023-07-20T12:50:19;1.85;;;1.00;;
81176;SDS011;70786;48.272;14.200;2023-07-20T12:52:45;2.50;;;1.15;;
81176;SDS011;70786;48.272;14.200;2023-07-20T12:55:11;3.03;;;1.42;;
81176;SDS011;70786;48.272;14.200;2023-07-20T12:57:37;1.50;;;1.02;;
81176;SDS011;70786;48.272;14.200;2023-07-20T13:00:04;1.67;;;0.90;;
81176;SDS011;70786;48.272;14.200;2023-07-20T13:02:33;1.88;;;0.98;;
81176;SDS011;70786;48.272;14.200;2023-07-20T13:04:59;1.35;;;0.95;;
81176;SDS011;70786;48.272;14.200;2023-07-20T13:07:32;1.33;;;0.90;;
81176;SDS011;70786;48.272;14.200;2023-07-20T13:10:00;2.70;;;1.02;;
81176;SDS011;70786;48.272;14.200;2023-07-20T13:12:27;2.22;;;1.25;;
81176;SDS011;70786;48.272;14.200;2023-07-20T13:14:55;1.83;;;0.90;;
81176;SDS011;70786;48.272;14.200;2023-07-20T13:17:22;1.33;;;0.93;;
81176;SDS011;70786;48.272;14.200;2023-07-20T13:19:48;1.67;;;1.00;;
81176;SDS011;70786;48.272;14.200;2023-07-20T13:22:14;2.83;;;1.00;;
81176;SDS011;70786;48.272;14.200;2023-07-20T13:24:40;1.55;;;0.73;;
81176;SDS011;70786;48.272;14.200;2023-07-20T13:27:07;3.00;;;1.05;;
81176;SDS011;70786;48.272;14.200;2023-07-20T13:29:33;3.20;;;1.10;;
81176;SDS011;70786;48.272;14.200;2023-07-20T13:31:59;1.98;;;0.90;;
81176;SDS011;70786;48.272;14.200;2023-07-20T13:34:25;3.75;;;1.85;;
81176;SDS011;70786;48.272;14.200;2023-07-20T13:36:51;2.05;;;0.85;;
81176;SDS011;70786;48.272;14.200;2023-07-20T13:39:17;2.42;;;1.00;;
81176;SDS011;70786;48.272;14.200;2023-07-20T13:41:44;1.50;;;1.00;;
81176;SDS011;70786;48.272;14.200;2023-07-20T13:44:10;2.47;;;1.10;;
81176;SDS011;70786;48.272;14.200;2023-07-20T13:46:37;1.60;;;1.00;;
81176;SDS011;70786;48.272;14.200;2023-07-20T13:49:03;2.22;;;1.40;;
81176;SDS011;70786;48.272;14.200;2023-07-20T13:51:29;2.15;;;0.82;;
81176;SDS011;70786;48.272;14.200;2023-07-20T13:53:55;2.05;;;1.00;;
81176;SDS011;70786;48.272;14.200;2023-07-20T13:56:23;4.18;;;1.08;;
81176;SDS011;70786;48.272;14.200;2023-07-20T13:58:50;4.70;;;1.00;;
81176;SDS011;70786;48.272;14.200;2023-07-20T14:01:16;1.73;;;0.88;;
81176;SDS011;70786;48.272;14.200;2023-07-20T14:03:43;2.67;;;1.15;;
81176;SDS011;70786;48.272;14.200;2023-07-20T14:06:09;3.10;;;1.00;;
81176;SDS011;70786;48.272;14.200;2023-07-20T14:08:37;2.97;;;1.33;;
81176;SDS011;70786;48.272;14.200;2023-07-20T14:11:03;2.20;;;0.90;;
81176;SDS011;70786;48.272;14.200;2023-07-20T14:13:29;2.35;;;1.05;;
81176;SDS011;70786;48.272;14.200;2023-07-20T14:15:54;2.45;;;0.80;;
81176;SDS011;70786;48.272;14.200;2023-07-20T14:18:20;4.78;;;1.05;;
81176;SDS011;70786;48.272;14.200;2023-07-20T14:20:46;1.73;;;0.80;;
81176;SDS011;70786;48.272;14.200;2023-07-20T14:23:12;2.33;;;1.10;;
81176;SDS011;70786;48.272;14.200;2023-07-20T14:25:38;1.40;;;0.85;;
81176;SDS011;70786;48.272;14.200;2023-07-20T14:28:05;2.28;;;1.27;;
81176;SDS011;70786;48.272;14.200;2023-07-20T14:30:33;1.10;;;0.80;;
81176;SDS011;70786;48.272;14.200;2023-07-20T14:32:59;3.60;;;1.20;;
81176;SDS011;70786;48.272;14.200;2023-07-20T14:35:25;2.78;;;0.95;;
81176;SDS011;70786;48.272;14.200;2023-07-20T14:37:51;1.60;;;0.90;;
81176;SDS011;70786;48.272;14.200;2023-07-20T14:40:18;1.90;;;0.85;;
81176;SDS011;70786;48.272;14.200;2023-07-20T14:42:44;2.67;;;0.88;;
81176;SDS011;70786;48.272;14.200;2023-07-20T14:45:10;2.63;;;1.00;;
81176;SDS011;70786;48.272;14.200;2023-07-20T14:47:36;3.00;;;0.98;;
81176;SDS011;70786;48.272;14.200;2023-07-20T14:50:02;1.90;;;0.98;;
81176;SDS011;70786;48.272;14.200;2023-07-20T14:52:28;1.58;;;0.90;;
81176;SDS011;70786;48.272;14.200;2023-07-20T14:54:54;1.27;;;0.93;;
81176;SDS011;70786;48.272;14.200;2023-07-20T14:57:20;2.13;;;1.00;;
81176;SDS011;70786;48.272;14.200;2023-07-20T14:59:49;1.50;;;0.88;;